createdAt,value
2018-03-01T00:01:16.875Z,-6.01
2018-03-01T00:03:44.390Z,-6.00
2018-03-01T00:06:11.917Z,-6.02
2018-03-01T00:08:39.433Z,-6.08
2018-03-01T00:11:06.944Z,-6.02
2018-03-01T00:13:34.479Z,-6.01
2018-03-01T00:16:02.029Z,-5.99
2018-03-01T00:18:29.651Z,-5.94
2018-03-01T00:20:57.620Z,-5.95
2018-03-01T00:23:25.232Z,-6.01
2018-03-01T00:25:52.738Z,-5.99
2018-03-01T00:28:20.232Z,-6.00
2018-03-01T00:30:47.834Z,-6.02
2018-03-01T00:33:15.467Z,-6.05
2018-03-01T00:35:42.994Z,-6.10
2018-03-01T00:38:10.584Z,-6.11
2018-03-01T00:40:38.111Z,-6.10
2018-03-01T00:43:06.092Z,-6.14
2018-03-01T00:45:33.668Z,-6.21
2018-03-01T00:48:01.199Z,-6.20
2018-03-01T00:50:28.725Z,-6.33
2018-03-01T00:52:56.255Z,-6.30
2018-03-01T00:55:23.970Z,-6.39
2018-03-01T00:57:51.463Z,-6.46
2018-03-01T01:00:18.968Z,-6.49
2018-03-01T01:02:46.474Z,-6.62
2018-03-01T01:05:13.986Z,-6.70
2018-03-01T01:07:41.513Z,-6.70
2018-03-01T01:10:09.031Z,-6.70
2018-03-01T01:12:36.570Z,-6.74
2018-03-01T01:15:04.077Z,-6.88
2018-03-01T01:17:31.615Z,-6.83
2018-03-01T01:19:59.264Z,-6.88
2018-03-01T01:22:26.804Z,-6.92
2018-03-01T01:24:54.304Z,-6.98
2018-03-01T01:27:21.818Z,-7.02
2018-03-01T01:29:49.368Z,-6.97
2018-03-01T01:32:16.938Z,-7.02
2018-03-01T01:34:44.477Z,-7.11
2018-03-01T01:37:11.987Z,-7.15
2018-03-01T01:39:39.512Z,-7.25
2018-03-01T01:42:07.001Z,-7.16
2018-03-01T01:44:34.532Z,-7.08
2018-03-01T01:47:02.030Z,-7.19
2018-03-01T01:49:29.614Z,-7.15
2018-03-01T01:51:57.173Z,-7.21
2018-03-01T01:54:25.365Z,-7.19
2018-03-01T01:56:52.867Z,-7.25
2018-03-01T01:59:20.351Z,-7.32
2018-03-01T02:01:47.874Z,-7.27
2018-03-01T02:04:15.404Z,-7.26
2018-03-01T02:06:43.016Z,-7.18
2018-03-01T02:09:10.656Z,-7.20
2018-03-01T02:11:39.673Z,-7.11
2018-03-01T02:14:07.568Z,-7.10
2018-03-01T02:16:35.132Z,-6.98
2018-03-01T02:19:02.665Z,-7.08
2018-03-01T02:21:30.197Z,-7.06
2018-03-01T02:23:57.931Z,-6.99
2018-03-01T02:26:25.454Z,-6.96
2018-03-01T02:28:53.903Z,-6.93
2018-03-01T02:31:21.508Z,-6.99
2018-03-01T02:33:49.140Z,-6.97
2018-03-01T02:39:16.719Z,-6.92
2018-03-01T02:41:44.274Z,-6.93
2018-03-01T02:44:11.797Z,-7.00
2018-03-01T02:46:39.344Z,-6.98
2018-03-01T02:49:06.878Z,-7.02
2018-03-01T02:51:34.462Z,-7.05
2018-03-01T02:54:02.007Z,-7.10
2018-03-01T02:56:29.540Z,-7.12
2018-03-01T02:58:57.144Z,-7.09
2018-03-01T03:01:24.645Z,-7.12
2018-03-01T03:03:53.046Z,-7.12
2018-03-01T03:06:20.543Z,-7.15
2018-03-01T03:08:48.079Z,-7.21
2018-03-01T03:11:16.105Z,-7.19
2018-03-01T03:13:43.630Z,-7.15
2018-03-01T03:16:11.145Z,-7.11
2018-03-01T03:18:38.667Z,-7.06
2018-03-01T03:21:06.247Z,-7.16
2018-03-01T03:23:33.801Z,-7.09
2018-03-01T03:26:01.315Z,-7.04
2018-03-01T03:28:28.837Z,-7.03
2018-03-01T03:30:56.351Z,-7.05
2018-03-01T03:33:23.898Z,-7.02
2018-03-01T03:35:51.379Z,-7.02
2018-03-01T03:38:18.945Z,-6.92
2018-03-01T03:40:46.476Z,-6.89
2018-03-01T03:43:13.993Z,-6.85
2018-03-01T03:45:41.541Z,-6.86
2018-03-01T03:48:09.118Z,-6.91
2018-03-01T03:50:36.624Z,-6.95
2018-03-01T03:53:04.164Z,-6.78
2018-03-01T03:55:31.737Z,-6.76
2018-03-01T03:57:59.296Z,-6.81
2018-03-01T04:00:27.293Z,-6.85
2018-03-01T04:02:54.811Z,-6.74
2018-03-01T04:05:22.332Z,-6.79
2018-03-01T04:07:49.926Z,-6.80
2018-03-01T04:10:17.466Z,-6.76
2018-03-01T04:12:45.017Z,-6.81
2018-03-01T04:15:12.563Z,-6.81
2018-03-01T04:17:41.014Z,-6.69
2018-03-01T04:20:09.029Z,-6.71
2018-03-01T04:22:36.560Z,-6.72
2018-03-01T04:25:04.112Z,-6.66
2018-03-01T04:27:32.042Z,-6.66
2018-03-01T04:30:00.004Z,-6.67
2018-03-01T04:32:28.131Z,-6.71
2018-03-01T04:34:55.639Z,-6.65
2018-03-01T04:37:23.195Z,-6.67
2018-03-01T04:39:50.713Z,-6.63
2018-03-01T04:42:18.214Z,-6.62
2018-03-01T04:44:45.739Z,-6.54
2018-03-01T04:47:13.250Z,-6.46
2018-03-01T04:49:40.849Z,-6.46
2018-03-01T04:52:08.364Z,-6.41
2018-03-01T04:54:36.346Z,-6.29
2018-03-01T04:57:03.848Z,-6.33
2018-03-01T04:59:31.418Z,-6.26
2018-03-01T05:01:59.092Z,-6.07
2018-03-01T05:04:27.034Z,-6.11
2018-03-01T05:06:54.579Z,-6.23
2018-03-01T05:09:22.094Z,-6.21
2018-03-01T05:11:49.599Z,-6.28
2018-03-01T05:14:17.678Z,-6.24
2018-03-01T05:16:45.180Z,-6.14
2018-03-01T05:19:12.746Z,-6.20
2018-03-01T05:21:40.250Z,-6.20
2018-03-01T05:24:07.762Z,-6.12
2018-03-01T05:26:35.262Z,-6.23
2018-03-01T05:29:02.756Z,-6.19
2018-03-01T05:31:30.267Z,-6.10
2018-03-01T05:33:57.846Z,-6.08
2018-03-01T05:36:25.352Z,-6.03
2018-03-01T05:38:52.998Z,-6.06
2018-03-01T05:41:20.528Z,-6.10
2018-03-01T05:43:48.101Z,-6.14
2018-03-01T05:46:15.603Z,-6.05
2018-03-01T05:48:43.188Z,-6.10
2018-03-01T05:51:10.725Z,-6.14
2018-03-01T05:53:38.299Z,-6.02
2018-03-01T05:56:05.849Z,-6.17
2018-03-01T05:58:33.357Z,-6.16
2018-03-01T06:01:00.874Z,-6.22
2018-03-01T06:03:28.368Z,-6.19
2018-03-01T06:05:55.908Z,-6.17
2018-03-01T06:08:24.386Z,-6.27
2018-03-01T06:10:51.940Z,-6.24
2018-03-01T06:13:19.478Z,-6.20
2018-03-01T06:15:46.973Z,-6.19
2018-03-01T06:18:14.486Z,-6.11
2018-03-01T06:20:41.982Z,-6.21
2018-03-01T06:23:09.491Z,-6.23
2018-03-01T06:25:37.028Z,-6.23
2018-03-01T06:28:04.587Z,-6.13
2018-03-01T06:30:32.132Z,-6.18
2018-03-01T06:32:59.633Z,-6.06
2018-03-01T06:35:27.183Z,-5.99
2018-03-01T06:37:54.776Z,-5.94
2018-03-01T06:40:22.308Z,-5.98
2018-03-01T06:42:49.812Z,-5.86
2018-03-01T06:45:17.371Z,-5.79
2018-03-01T06:47:44.876Z,-5.86
2018-03-01T06:50:12.383Z,-5.60
2018-03-01T06:52:39.900Z,-5.65
2018-03-01T06:55:07.421Z,-5.52
2018-03-01T06:57:34.948Z,-5.27
2018-03-01T07:00:02.445Z,-5.38
2018-03-01T07:02:29.996Z,-5.35
2018-03-01T07:04:57.528Z,-5.23
2018-03-01T07:07:25.048Z,-5.08
2018-03-01T07:09:52.597Z,-4.94
2018-03-01T07:12:20.094Z,-5.09
2018-03-01T07:14:47.602Z,-5.15
2018-03-01T07:17:15.132Z,-4.91
2018-03-01T07:19:42.653Z,-4.74
2018-03-01T07:22:10.197Z,-4.80
2018-03-01T07:24:37.687Z,-4.73
2018-03-01T07:27:05.964Z,-4.54
2018-03-01T07:29:33.623Z,-4.50
2018-03-01T07:32:01.413Z,-4.38
2018-03-01T07:34:28.976Z,-4.46
2018-03-01T07:36:56.510Z,-4.29
2018-03-01T07:39:24.023Z,-4.34
2018-03-01T07:41:51.596Z,-4.33
2018-03-01T07:44:19.101Z,-4.31
2018-03-01T07:46:46.632Z,-4.28
2018-03-01T07:49:14.150Z,-3.97
2018-03-01T07:51:41.659Z,-4.13
2018-03-01T07:54:09.243Z,-3.81
2018-03-01T07:56:36.813Z,-3.93
2018-03-01T07:59:04.331Z,-3.66
2018-03-01T08:01:31.844Z,-3.70
2018-03-01T08:03:59.419Z,-3.60
2018-03-01T08:06:26.927Z,-3.33
2018-03-01T08:08:54.436Z,-3.27
2018-03-01T08:11:22.027Z,-3.22
2018-03-01T08:13:49.536Z,-2.96
2018-03-01T08:16:17.093Z,-2.83
2018-03-01T08:18:44.608Z,-2.87
2018-03-01T08:21:12.127Z,-2.79
2018-03-01T08:23:39.658Z,-2.74
2018-03-01T08:26:07.180Z,-2.25
2018-03-01T08:28:34.664Z,-2.27
2018-03-01T08:31:02.174Z,-1.95
2018-03-01T08:33:29.710Z,-1.79
2018-03-01T08:35:57.274Z,-1.92
2018-03-01T08:38:24.790Z,-1.75
2018-03-01T08:40:52.281Z,-1.93
2018-03-01T08:43:19.795Z,-1.49
2018-03-01T08:45:47.292Z,-1.73
2018-03-01T08:48:14.821Z,-1.66
2018-03-01T08:50:42.321Z,-1.72
2018-03-01T08:53:09.851Z,-1.62
2018-03-01T08:55:37.366Z,-1.20
2018-03-01T08:58:04.874Z,-1.43
2018-03-01T09:00:32.391Z,-1.46
2018-03-01T09:02:59.904Z,-1.29
2018-03-01T09:05:27.451Z,-1.45
2018-03-01T09:07:54.977Z,-1.06
2018-03-01T09:10:22.476Z,-1.22
2018-03-01T09:12:49.995Z,-0.93
2018-03-01T09:15:17.508Z,-1.29
2018-03-01T09:17:45.083Z,-1.42
2018-03-01T09:20:12.575Z,-1.02
2018-03-01T09:22:40.060Z,-1.11
2018-03-01T09:25:07.565Z,-1.13
2018-03-01T09:27:35.086Z,-1.04
2018-03-01T09:30:02.684Z,-0.85
2018-03-01T09:32:30.190Z,-0.55
2018-03-01T09:34:57.711Z,-0.83
2018-03-01T09:37:25.232Z,-0.61
2018-03-01T09:39:52.760Z,-0.10
2018-03-01T09:42:20.281Z,-0.42
2018-03-01T09:44:47.802Z,-0.03
2018-03-01T09:47:15.313Z,0.17
2018-03-01T09:49:42.857Z,0.42
2018-03-01T09:52:10.372Z,0.23
2018-03-01T09:54:37.906Z,0.66
2018-03-01T09:57:05.428Z,0.43
2018-03-01T09:59:32.910Z,0.82
2018-03-01T10:02:00.403Z,0.68
2018-03-01T10:04:28.819Z,0.31
2018-03-01T10:06:56.369Z,0.72
2018-03-01T10:09:23.866Z,1.13
2018-03-01T10:11:51.392Z,1.14
2018-03-01T10:14:18.910Z,1.55
2018-03-01T10:16:46.463Z,1.70
2018-03-01T10:19:14.007Z,2.11
2018-03-01T10:21:41.518Z,1.57
2018-03-01T10:24:09.035Z,1.78
2018-03-01T10:26:36.541Z,2.31
2018-03-01T10:29:04.111Z,2.30
2018-03-01T10:31:31.636Z,2.31
2018-03-01T10:33:59.212Z,2.29
2018-03-01T10:36:26.743Z,1.93
2018-03-01T10:38:54.245Z,1.97
2018-03-01T10:41:21.774Z,1.92
2018-03-01T10:43:49.274Z,2.32
2018-03-01T10:46:16.838Z,2.09
2018-03-01T10:48:44.419Z,2.31
2018-03-01T10:51:11.929Z,2.98
2018-03-01T10:53:39.527Z,2.54
2018-03-01T10:56:07.050Z,1.93
2018-03-01T10:58:35.382Z,2.56
2018-03-01T11:01:02.906Z,2.75
2018-03-01T11:03:30.405Z,2.78
2018-03-01T11:05:57.975Z,2.75
2018-03-01T11:08:25.551Z,2.66
2018-03-01T11:10:53.085Z,2.17
2018-03-01T11:13:20.632Z,2.13
2018-03-01T11:15:48.151Z,1.87
2018-03-01T11:18:15.669Z,1.71
2018-03-01T11:20:43.142Z,1.90
2018-03-01T11:23:10.654Z,2.00
2018-03-01T11:25:38.212Z,1.49
2018-03-01T11:28:05.729Z,1.80
2018-03-01T11:30:33.990Z,1.56
2018-03-01T11:33:01.529Z,1.78
2018-03-01T11:35:29.030Z,1.58
2018-03-01T11:37:56.693Z,2.12
2018-03-01T11:40:24.269Z,2.20
2018-03-01T11:42:51.778Z,2.21
2018-03-01T11:45:19.316Z,2.16
2018-03-01T11:47:46.874Z,2.61
2018-03-01T11:50:14.360Z,2.49
2018-03-01T11:52:41.961Z,2.58
2018-03-01T11:55:09.513Z,2.92
2018-03-01T11:57:37.055Z,3.36
2018-03-01T12:00:04.568Z,4.04
2018-03-01T12:02:32.110Z,4.23
2018-03-01T12:04:59.657Z,5.00
2018-03-01T12:07:27.192Z,5.25
2018-03-01T12:09:54.776Z,5.24
2018-03-01T12:12:22.294Z,5.75
2018-03-01T12:14:49.810Z,5.57
2018-03-01T12:17:17.304Z,6.19
2018-03-01T12:19:44.895Z,6.41
2018-03-01T12:22:13.336Z,6.78
2018-03-01T12:24:40.878Z,6.69
2018-03-01T12:27:08.402Z,7.44
2018-03-01T12:29:35.917Z,7.78
2018-03-01T12:32:03.414Z,8.16
2018-03-01T12:34:30.917Z,7.92
2018-03-01T12:36:58.441Z,9.32
2018-03-01T12:39:25.940Z,11.66
2018-03-01T12:41:53.449Z,11.74
2018-03-01T12:44:20.981Z,13.19
2018-03-01T12:46:48.873Z,13.33
2018-03-01T12:49:16.404Z,13.75
2018-03-01T12:51:43.905Z,13.06
2018-03-01T12:54:11.410Z,12.80
2018-03-01T12:56:38.909Z,13.03
2018-03-01T12:59:06.406Z,11.22
2018-03-01T13:01:33.925Z,10.78
2018-03-01T13:04:04.050Z,10.52
2018-03-01T13:06:31.543Z,8.88
2018-03-01T13:08:59.063Z,7.36
2018-03-01T13:11:26.642Z,7.53
2018-03-01T13:13:54.151Z,6.68
2018-03-01T13:16:22.067Z,6.10
2018-03-01T13:18:49.635Z,4.84
2018-03-01T13:21:17.219Z,5.29
2018-03-01T13:23:44.825Z,4.90
2018-03-01T13:26:13.003Z,4.63
2018-03-01T13:28:40.578Z,4.86
2018-03-01T13:31:16.250Z,5.04
2018-03-01T13:36:46.408Z,5.19
2018-03-01T13:39:13.998Z,6.05
2018-03-01T13:41:42.714Z,7.24
2018-03-01T13:44:10.232Z,7.09
2018-03-01T13:46:41.087Z,6.15
2018-03-01T13:49:08.645Z,5.74
2018-03-01T13:51:36.167Z,5.81
2018-03-01T13:54:03.792Z,5.92
2018-03-01T13:56:31.776Z,5.75
2018-03-01T13:58:59.428Z,5.91
2018-03-01T14:01:28.982Z,6.12
2018-03-01T14:03:56.535Z,6.10
2018-03-01T14:09:26.126Z,5.87
2018-03-01T14:11:53.641Z,5.54
2018-03-01T14:14:21.555Z,5.30
2018-03-01T14:16:49.881Z,5.53
2018-03-01T14:19:17.412Z,5.02
2018-03-01T14:22:05.582Z,5.04
2018-03-01T14:24:33.075Z,4.55
2018-03-01T14:27:06.309Z,4.96
2018-03-01T14:32:34.628Z,4.89
2018-03-01T14:35:02.212Z,4.88
2018-03-01T14:37:29.768Z,4.37
2018-03-01T14:39:57.287Z,4.34
2018-03-01T14:42:24.826Z,4.30
2018-03-01T14:44:52.374Z,4.75
2018-03-01T14:47:19.889Z,4.36
2018-03-01T14:49:47.441Z,4.17
2018-03-01T14:52:15.641Z,4.20
2018-03-01T14:54:43.186Z,4.23
2018-03-01T14:57:10.684Z,3.75
2018-03-01T14:59:38.203Z,3.81
2018-03-01T15:02:05.909Z,3.83
2018-03-01T15:04:33.425Z,3.49
2018-03-01T15:07:00.920Z,3.49
2018-03-01T15:09:28.449Z,3.59
2018-03-01T15:11:56.331Z,3.64
2018-03-01T15:14:23.903Z,3.40
2018-03-01T15:16:51.407Z,3.11
2018-03-01T15:19:18.933Z,3.07
2018-03-01T15:21:46.453Z,2.82
2018-03-01T15:24:14.018Z,2.75
2018-03-01T15:26:41.552Z,2.72
2018-03-01T15:29:09.066Z,2.79
2018-03-01T15:31:36.598Z,2.69
2018-03-01T15:34:04.152Z,2.98
2018-03-01T15:36:31.714Z,3.06
2018-03-01T15:38:59.249Z,2.47
2018-03-01T15:41:26.748Z,2.34
2018-03-01T15:43:54.332Z,2.17
2018-03-01T15:46:21.868Z,2.11
2018-03-01T15:48:49.354Z,1.84
2018-03-01T15:51:16.864Z,1.66
2018-03-01T15:53:44.372Z,1.79
2018-03-01T15:56:11.881Z,1.61
2018-03-01T15:58:39.398Z,1.49
2018-03-01T16:01:06.904Z,1.41
2018-03-01T16:03:34.425Z,1.33
2018-03-01T16:06:01.939Z,1.14
2018-03-01T16:08:29.417Z,1.22
2018-03-01T16:10:56.932Z,1.15
2018-03-01T16:13:24.480Z,1.14
2018-03-01T16:15:52.024Z,1.08
2018-03-01T16:18:19.546Z,1.10
2018-03-01T16:20:47.144Z,1.11
2018-03-01T16:23:14.667Z,0.95
2018-03-01T16:25:42.173Z,0.71
2018-03-01T16:28:09.680Z,0.71
2018-03-01T16:30:37.211Z,0.51
2018-03-01T16:33:04.740Z,0.53
2018-03-01T16:35:32.226Z,0.40
2018-03-01T16:37:59.774Z,0.42
2018-03-01T16:40:27.264Z,0.31
2018-03-01T16:42:54.767Z,0.28
2018-03-01T16:45:22.276Z,0.28
2018-03-01T16:47:49.783Z,0.22
2018-03-01T16:50:17.284Z,0.18
2018-03-01T16:52:44.830Z,0.12
2018-03-01T16:55:12.437Z,0.11
2018-03-01T16:57:39.965Z,0.09
2018-03-01T17:00:07.462Z,0.02
2018-03-01T17:02:35.010Z,-0.02
2018-03-01T17:05:02.542Z,0.00
2018-03-01T17:07:30.059Z,0.03
2018-03-01T17:09:57.603Z,-0.10
2018-03-01T17:12:25.150Z,-0.09
2018-03-01T17:14:52.730Z,-0.12
2018-03-01T17:17:20.271Z,-0.12
2018-03-01T17:19:47.820Z,-0.18
2018-03-01T17:22:15.384Z,-0.14
2018-03-01T17:24:42.930Z,-0.22
2018-03-01T17:27:10.474Z,-0.30
2018-03-01T17:29:37.996Z,-0.18
2018-03-01T17:32:05.508Z,-0.23
2018-03-01T17:34:33.067Z,-0.21
2018-03-01T17:37:00.709Z,-0.22
2018-03-01T17:39:28.286Z,-0.16
2018-03-01T17:41:55.880Z,-0.10
2018-03-01T17:44:23.427Z,-0.17
2018-03-01T17:46:50.991Z,-0.15
2018-03-01T17:49:18.563Z,-0.25
2018-03-01T17:51:46.152Z,-0.22
2018-03-01T17:54:13.711Z,-0.31
2018-03-01T17:56:41.202Z,-0.26
2018-03-01T17:59:08.704Z,-0.25
2018-03-01T18:01:36.276Z,-0.22
2018-03-01T18:04:03.901Z,-0.29
2018-03-01T18:06:31.396Z,-0.40
2018-03-01T18:08:59.908Z,-0.39
2018-03-01T18:11:27.479Z,-0.42
2018-03-01T18:13:57.960Z,-0.34
2018-03-01T18:16:25.496Z,-0.49
2018-03-01T18:18:53.031Z,-0.50
2018-03-01T18:21:20.556Z,-0.55
2018-03-01T18:23:48.064Z,-0.50
2018-03-01T18:26:15.602Z,-0.57
2018-03-01T18:28:43.112Z,-0.55
2018-03-01T18:31:10.678Z,-0.67
2018-03-01T18:33:39.422Z,-0.63
2018-03-01T18:36:07.095Z,-0.61
2018-03-01T18:38:34.678Z,-0.65
2018-03-01T18:41:02.379Z,-0.63
2018-03-01T18:43:29.963Z,-0.60
2018-03-01T18:45:57.632Z,-0.59
2018-03-01T18:48:25.212Z,-0.51
2018-03-01T18:50:52.753Z,-0.50
2018-03-01T18:53:20.317Z,-0.52
2018-03-01T18:55:47.849Z,-0.46
2018-03-01T18:58:15.359Z,-0.50
2018-03-01T19:00:42.908Z,-0.41
2018-03-01T19:03:10.421Z,-0.42
2018-03-01T19:05:38.031Z,-0.51
2018-03-01T19:08:05.620Z,-0.51
2018-03-01T19:10:33.135Z,-0.48
2018-03-01T19:13:00.646Z,-0.49
2018-03-01T19:15:29.312Z,-0.58
2018-03-01T19:17:56.890Z,-0.58
2018-03-01T19:20:24.687Z,-0.64
2018-03-01T19:22:52.344Z,-0.62
2018-03-01T19:25:19.898Z,-0.63
2018-03-01T19:27:47.424Z,-0.61
2018-03-01T19:30:15.031Z,-0.67
2018-03-01T19:32:42.618Z,-0.69
2018-03-01T19:35:11.316Z,-0.65
2018-03-01T19:37:38.864Z,-0.69
2018-03-01T19:40:06.373Z,-0.72
2018-03-01T19:42:34.003Z,-0.73
2018-03-01T19:45:01.496Z,-0.82
2018-03-01T19:47:29.019Z,-0.78
2018-03-01T19:49:57.910Z,-0.86
2018-03-01T19:52:25.459Z,-0.95
2018-03-01T19:54:53.007Z,-0.83
2018-03-01T19:57:20.553Z,-0.89
2018-03-01T19:59:48.102Z,-0.89
2018-03-01T20:02:15.632Z,-0.86
2018-03-01T20:04:43.161Z,-0.87
2018-03-01T20:07:10.721Z,-0.85
2018-03-01T20:09:38.237Z,-0.96
2018-03-01T20:12:05.760Z,-0.97
2018-03-01T20:14:33.306Z,-1.01
2018-03-01T20:17:00.885Z,-1.02
2018-03-01T20:19:28.405Z,-1.05
2018-03-01T20:21:55.940Z,-1.15
2018-03-01T20:24:23.484Z,-1.21
2018-03-01T20:26:51.014Z,-1.13
2018-03-01T20:29:18.549Z,-1.29
2018-03-01T20:31:46.057Z,-1.28
2018-03-01T20:34:13.629Z,-1.31
2018-03-01T20:36:41.173Z,-1.37
2018-03-01T20:39:08.830Z,-1.39
2018-03-01T20:41:36.365Z,-1.48
2018-03-01T20:44:03.885Z,-1.58
2018-03-01T20:46:31.418Z,-1.62
2018-03-01T20:48:58.906Z,-1.63
2018-03-01T20:51:26.429Z,-1.70
2018-03-01T20:53:53.921Z,-1.81
2018-03-01T20:56:21.423Z,-1.83
2018-03-01T20:58:49.114Z,-1.84
2018-03-01T21:01:16.665Z,-1.84
2018-03-01T21:03:44.180Z,-1.93
2018-03-01T21:06:11.749Z,-1.91
2018-03-01T21:08:39.298Z,-1.94
2018-03-01T21:11:06.808Z,-1.97
2018-03-01T21:13:34.341Z,-1.98
2018-03-01T21:16:01.863Z,-2.00
2018-03-01T21:18:29.382Z,-2.05
2018-03-01T21:20:56.961Z,-2.06
2018-03-01T21:23:24.567Z,-2.05
2018-03-01T21:25:52.074Z,-2.13
2018-03-01T21:28:19.711Z,-2.15
2018-03-01T21:30:47.285Z,-2.22
2018-03-01T21:33:14.803Z,-2.28
2018-03-01T21:35:42.364Z,-2.26
2018-03-01T21:38:09.891Z,-2.31
2018-03-01T21:40:37.462Z,-2.36
2018-03-01T21:43:05.011Z,-2.32
2018-03-01T21:45:32.557Z,-2.37
2018-03-01T21:48:00.072Z,-2.39
2018-03-01T21:50:27.569Z,-2.51
2018-03-01T21:52:59.581Z,-2.50
2018-03-01T21:55:27.175Z,-2.46
2018-03-01T21:57:54.708Z,-2.51
2018-03-01T22:00:22.285Z,-2.55
2018-03-01T22:02:49.816Z,-2.59
2018-03-01T22:05:17.328Z,-2.59
2018-03-01T22:07:53.752Z,-2.64
2018-03-01T22:10:21.306Z,-2.64
2018-03-01T22:12:48.850Z,-2.63
2018-03-01T22:15:18.227Z,-2.65
2018-03-01T22:17:45.872Z,-2.65
2018-03-01T22:20:13.852Z,-2.71
2018-03-01T22:22:41.461Z,-2.70
2018-03-01T22:25:09.034Z,-2.73
2018-03-01T22:27:36.564Z,-2.74
2018-03-01T22:30:04.288Z,-2.77
2018-03-01T22:32:32.023Z,-2.78
2018-03-01T22:35:01.590Z,-2.74
2018-03-01T22:37:30.020Z,-2.83
2018-03-01T22:39:57.667Z,-2.83
2018-03-01T22:42:25.173Z,-2.88
2018-03-01T22:44:52.758Z,-2.90
2018-03-01T22:47:20.266Z,-2.93
2018-03-01T22:49:47.794Z,-2.94
2018-03-01T22:52:15.355Z,-2.96
2018-03-01T22:54:42.868Z,-2.93
2018-03-01T22:57:10.429Z,-3.02
2018-03-01T22:59:37.963Z,-3.04
2018-03-01T23:02:05.567Z,-3.05
2018-03-01T23:04:33.102Z,-3.02
2018-03-01T23:07:00.649Z,-3.04
2018-03-01T23:09:28.195Z,-3.02
2018-03-01T23:11:55.708Z,-2.98
2018-03-01T23:14:23.237Z,-3.07
2018-03-01T23:16:50.812Z,-3.07
2018-03-01T23:19:18.376Z,-3.15
2018-03-01T23:21:45.866Z,-3.15
2018-03-01T23:24:13.369Z,-3.17
2018-03-01T23:26:40.883Z,-3.24
2018-03-01T23:29:08.426Z,-3.27
2018-03-01T23:31:35.950Z,-3.28
2018-03-01T23:34:03.477Z,-3.27
2018-03-01T23:36:30.983Z,-3.35
2018-03-01T23:38:58.492Z,-3.34
2018-03-01T23:41:26.056Z,-3.32
2018-03-01T23:43:53.592Z,-3.29
2018-03-01T23:46:21.110Z,-3.37
2018-03-01T23:48:48.623Z,-3.41
2018-03-01T23:51:16.135Z,-3.46
2018-03-01T23:53:43.715Z,-3.42
2018-03-01T23:56:11.234Z,-3.46
2018-03-01T23:58:38.770Z,-3.51
